Time;durP1;ratioP1;P1;durP2;ratioP2;P2;SDS_P1;SDS_P2;PMS_P1;PMS_P2;Temp;Humidity;BMP_temperature;BMP_pressure;BME280_temperature;BME280_humidity;BME280_pressure;Samples;Min_cycle;Max_cycle;Signal;HPM_P1;HPM_P2
2022/09/26 00:01:46;;;;;;;6.88;5.65;;;;;;;17.07;48.57;99605.53;5112053;28;20713;-41
2022/09/26 00:04:24;;;;;;;7.93;5.25;;;;;;;17.12;48.71;99610.97;5111672;28;20023;-42
2022/09/26 00:06:51;;;;;;;9.70;5.72;;;;;;;17.07;48.99;99615.47;5111667;28;20033;-42
2022/09/26 00:09:17;;;;;;;8.38;5.18;;;;;;;17.07;48.38;99610.09;5111998;28;20015;-42
2022/09/26 00:11:43;;;;;;;7.30;5.55;;;;;;;16.96;48.83;99603.75;5111462;28;20016;-42
2022/09/26 00:14:13;;;;;;;7.90;5.30;;;;;;;16.98;48.13;99607.00;5111726;28;20027;-40
2022/09/26 00:16:39;;;;;;;7.90;4.95;;;;;;;16.89;48.57;99606.66;5112038;28;20032;-41
2022/09/26 00:19:06;;;;;;;6.85;5.00;;;;;;;16.70;48.71;99584.59;5111703;28;20416;-41
2022/09/26 00:21:31;;;;;;;7.25;4.78;;;;;;;16.76;48.70;99597.03;5111832;28;20034;-41
2022/09/26 00:23:59;;;;;;;6.68;5.30;;;;;;;16.71;48.27;99596.16;5111917;28;20023;-42
2022/09/26 00:26:26;;;;;;;7.03;4.93;;;;;;;16.74;48.85;99595.66;5110058;28;20111;-41
2022/09/26 00:28:52;;;;;;;8.35;5.20;;;;;;;16.69;49.33;99587.53;5111515;28;20045;-41
2022/09/26 00:31:24;;;;;;;7.10;5.78;;;;;;;16.71;49.11;99586.19;5111742;28;20389;-41
2022/09/26 00:33:50;;;;;;;8.88;5.63;;;;;;;16.73;49.07;99600.19;5111543;28;20160;-41
2022/09/26 00:36:16;;;;;;;10.38;5.68;;;;;;;16.72;48.75;99587.84;5111589;28;20020;-41
2022/09/26 00:38:41;;;;;;;8.98;5.43;;;;;;;16.72;48.42;99587.03;5109934;28;20172;-42
2022/09/26 00:41:07;;;;;;;8.00;5.68;;;;;;;16.68;48.53;99586.72;5111021;28;20127;-43
2022/09/26 00:43:36;;;;;;;7.15;5.10;;;;;;;16.55;49.19;99579.81;5111304;28;20027;-43
2022/09/26 00:46:12;;;;;;;7.43;5.05;;;;;;;16.52;48.59;99577.59;5111292;28;20019;-44
2022/09/26 00:48:40;;;;;;;7.47;5.03;;;;;;;16.50;48.62;99578.91;5111230;28;20027;-42
2022/09/26 00:51:06;;;;;;;6.18;4.78;;;;;;;16.49;48.64;99583.50;5111188;28;20475;-42
2022/09/26 00:53:36;;;;;;;5.80;4.68;;;;;;;16.52;48.20;99576.81;5111319;28;20020;-42
2022/09/26 00:56:10;;;;;;;6.38;4.97;;;;;;;16.47;48.17;99574.88;5111284;28;20015;-43
2022/09/26 00:58:43;;;;;;;7.45;4.50;;;;;;;16.58;48.42;99581.19;5111456;28;20011;-42
2022/09/26 01:01:09;;;;;;;8.45;4.82;;;;;;;16.47;48.56;99580.25;5109564;28;20539;-42
2022/09/26 01:03:37;;;;;;;5.55;4.75;;;;;;;16.42;48.61;99572.91;5111220;28;20023;-43
2022/09/26 01:06:02;;;;;;;6.68;4.55;;;;;;;16.40;48.98;99579.59;5111218;28;20020;-42
2022/09/26 01:08:33;;;;;;;5.85;4.47;;;;;;;16.37;49.09;99572.84;5111400;28;20034;-41
2022/09/26 01:11:00;;;;;;;6.68;4.63;;;;;;;16.25;48.30;99572.09;5111296;28;20128;-42
2022/09/26 01:13:26;;;;;;;6.97;4.90;;;;;;;16.34;49.31;99570.63;5110837;28;20479;-41
2022/09/26 01:15:52;;;;;;;6.93;4.93;;;;;;;16.32;49.88;99562.03;5111813;28;20098;-41
2022/09/26 01:18:17;;;;;;;7.55;5.28;;;;;;;16.12;49.82;99559.00;5115158;28;20102;-42
2022/09/26 01:20:51;;;;;;;6.47;5.03;;;;;;;15.93;50.75;99575.34;5115029;28;20067;-41
2022/09/26 01:23:38;;;;;;;9.13;5.18;;;;;;;15.96;50.55;99579.44;5115149;28;20060;-41
2022/09/26 01:26:27;;;;;;;7.43;5.00;;;;;;;16.02;50.78;99581.13;5114700;28;20068;-41
2022/09/26 01:29:11;;;;;;;5.53;4.90;;;;;;;15.87;50.78;99578.19;5115086;28;20028;-41
2022/09/26 01:31:39;;;;;;;6.50;4.80;;;;;;;15.88;50.31;99583.31;5115061;28;20020;-41
2022/09/26 01:34:18;;;;;;;6.00;4.93;;;;;;;15.71;50.95;99561.81;5114859;28;20102;-41
2022/09/26 01:36:46;;;;;;;7.57;4.95;;;;;;;15.97;50.53;99573.00;5115035;28;20106;-41
2022/09/26 01:39:45;;;;;;;5.95;5.03;;;;;;;15.94;51.11;99584.22;5114655;28;20027;-42
2022/09/26 01:42:22;;;;;;;7.55;5.10;;;;;;;15.97;50.11;99592.63;5114934;28;20016;-42
2022/09/26 01:44:53;;;;;;;6.47;4.65;;;;;;;15.90;50.26;99597.31;5114711;28;20031;-42
2022/09/26 01:47:24;;;;;;;6.00;4.80;;;;;;;15.70;50.68;99600.41;5114545;28;20172;-41
2022/09/26 01:50:16;;;;;;;10.75;5.10;;;;;;;15.62;51.56;99601.59;5114585;28;20075;-42
2022/09/26 01:52:54;;;;;;;6.03;4.88;;;;;;;15.64;51.26;99599.50;5114364;28;20081;-42
2022/09/26 01:55:22;;;;;;;7.82;5.20;;;;;;;15.68;51.90;99594.47;5114489;28;20028;-42
2022/09/26 01:57:58;;;;;;;7.95;5.40;;;;;;;15.74;51.71;99603.44;5114380;28;20352;-42
2022/09/26 02:00:25;;;;;;;7.00;5.00;;;;;;;15.74;51.42;99601.56;5114284;27;20438;-42
2022/09/26 02:02:50;;;;;;;9.05;5.05;;;;;;;15.70;51.61;99607.66;5114333;28;20026;-44
2022/09/26 02:05:32;;;;;;;5.93;4.70;;;;;;;15.60;51.20;99598.34;5114446;28;20095;-41
2022/09/26 02:08:18;;;;;;;6.63;5.00;;;;;;;15.62;51.86;99600.78;5114359;27;20022;-42
2022/09/26 02:10:48;;;;;;;7.40;5.22;;;;;;;15.60;51.35;99606.41;5114194;28;20019;-44
2022/09/26 02:13:24;;;;;;;6.05;4.82;;;;;;;15.61;51.66;99605.34;5114155;28;20039;-42
2022/09/26 02:15:56;;;;;;;8.25;5.53;;;;;;;15.58;50.99;99594.28;5114293;28;20026;-42
2022/09/26 02:18:45;;;;;;;8.45;5.03;;;;;;;15.58;51.10;99584.38;5114400;27;20057;-44
2022/09/26 02:21:18;;;;;;;6.20;5.28;;;;;;;15.48;51.11;99591.41;5113730;28;20476;-37
2022/09/26 02:23:46;;;;;;;8.10;5.13;;;;;;;15.57;51.27;99595.31;5113871;28;20448;-37
2022/09/26 02:26:12;;;;;;;5.68;4.43;;;;;;;15.54;51.06;99599.31;5113888;28;20024;-37
2022/09/26 02:28:38;;;;;;;5.40;4.82;;;;;;;15.51;51.32;99599.78;5112621;28;20151;-36
2022/09/26 02:31:07;;;;;;;6.65;4.63;;;;;;;15.43;51.14;99587.56;5113876;28;20049;-36
2022/09/26 02:33:33;;;;;;;5.72;4.90;;;;;;;15.52;51.22;99592.56;5113696;28;20077;-37
2022/09/26 02:35:58;;;;;;;7.10;4.65;;;;;;;15.51;50.74;99594.41;5111959;28;20506;-37
2022/09/26 02:38:28;;;;;;;6.25;4.18;;;;;;;15.53;51.03;99588.81;5105064;28;20503;-36
2022/09/26 02:41:16;;;;;;;6.47;4.38;;;;;;;15.50;50.81;99581.25;5113309;28;20030;-37
2022/09/26 02:43:58;;;;;;;5.90;4.70;;;;;;;15.43;51.29;99594.81;5103132;28;20023;-37
2022/09/26 02:46:50;;;;;;;9.95;4.90;;;;;;;15.46;50.91;99583.63;5113434;28;20088;-37
2022/09/26 02:49:46;;;;;;;6.72;4.25;;;;;;;15.44;51.14;99591.09;5113231;28;20043;-37
2022/09/26 02:52:30;;;;;;;7.60;4.80;;;;;;;15.29;51.28;99586.25;5113064;28;20059;-36
2022/09/26 02:55:14;;;;;;;8.82;5.30;;;;;;;15.33;51.69;99589.25;5113237;28;20367;-37
2022/09/26 02:57:53;;;;;;;6.75;4.90;;;;;;;15.31;51.29;99583.31;5113059;28;20034;-37
2022/09/26 03:00:30;;;;;;;7.20;5.28;;;;;;;15.32;51.56;99587.63;5113048;28;20111;-37
2022/09/26 03:03:16;;;;;;;7.32;4.60;;;;;;;15.31;51.55;99583.31;5113047;28;20035;-36
2022/09/26 03:05:45;;;;;;;14.40;8.00;;;;;;;15.37;56.18;99588.53;5112898;28;20019;-37
2022/09/26 03:08:17;;;;;;;20.40;12.27;;;;;;;15.61;58.89;99585.75;5112905;28;20024;-37
2022/09/26 03:10:44;;;;;;;15.13;9.95;;;;;;;15.94;52.55;99576.97;5112747;27;20476;-37
2022/09/26 03:13:13;;;;;;;16.70;9.35;;;;;;;15.94;50.79;99576.97;5112780;28;20027;-37
2022/09/26 03:15:41;;;;;;;14.45;6.60;;;;;;;15.87;50.78;99581.69;5112244;28;20029;-36
2022/09/26 03:18:14;;;;;;;9.40;5.75;;;;;;;15.47;50.81;99584.41;5112389;28;20427;-36
2022/09/26 03:20:40;;;;;;;9.48;5.70;;;;;;;15.54;50.96;99577.84;5112121;28;20051;-37
2022/09/26 03:23:06;;;;;;;9.13;5.75;;;;;;;15.49;50.72;99569.72;5112258;28;20448;-36
2022/09/26 03:25:32;;;;;;;9.18;6.03;;;;;;;15.39;51.04;99569.53;5111083;28;20067;-37
2022/09/26 03:28:01;;;;;;;11.82;6.13;;;;;;;15.32;51.38;99571.53;5112224;28;20024;-36
2022/09/26 03:30:28;;;;;;;7.90;5.68;;;;;;;15.34;51.51;99558.69;5112496;28;20038;-36
2022/09/26 03:32:54;;;;;;;9.10;5.15;;;;;;;15.15;51.83;99553.50;5111981;28;20483;-36
2022/09/26 03:35:20;;;;;;;11.25;5.90;;;;;;;15.06;52.95;99560.31;5109013;28;20111;-38
2022/09/26 03:37:46;;;;;;;10.70;5.30;;;;;;;15.03;52.69;99558.09;5108753;28;20049;-36
2022/09/26 03:40:13;;;;;;;10.10;5.85;;;;;;;15.09;51.99;99562.50;5109943;28;20104;-38
2022/09/26 03:42:39;;;;;;;11.95;5.75;;;;;;;15.14;51.68;99554.59;5110432;28;20031;-37
2022/09/26 03:45:07;;;;;;;14.65;6.30;;;;;;;15.07;52.49;99545.06;5110614;28;20033;-37
2022/09/26 03:47:33;;;;;;;16.67;7.05;;;;;;;15.09;52.21;99542.94;5109558;28;20028;-37
2022/09/26 03:49:59;;;;;;;18.73;6.40;;;;;;;15.05;52.25;99545.28;5110999;28;20035;-37
2022/09/26 03:52:25;;;;;;;10.77;5.72;;;;;;;15.01;52.45;99546.81;5110264;28;20030;-36
2022/09/26 03:54:52;;;;;;;11.73;6.82;;;;;;;14.93;52.88;99548.00;5109887;28;20102;-36
2022/09/26 03:57:18;;;;;;;16.83;8.27;;;;;;;14.93;53.05;99539.16;5110105;28;20027;-36
2022/09/26 03:59:44;;;;;;;16.42;7.35;;;;;;;14.82;53.58;99533.56;5109969;28;20451;-36
2022/09/26 04:02:09;;;;;;;12.32;6.43;;;;;;;14.75;53.53;99518.69;5109293;28;20034;-37
2022/09/26 04:04:35;;;;;;;14.40;6.55;;;;;;;14.74;53.28;99533.13;5109381;28;20494;-36
2022/09/26 04:07:00;;;;;;;9.20;6.15;;;;;;;14.70;54.18;99529.28;5107918;28;20020;-36
2022/09/26 04:09:26;;;;;;;16.02;6.20;;;;;;;14.60;55.02;99529.88;5109553;28;20175;-36
2022/09/26 04:11:52;;;;;;;16.70;6.15;;;;;;;14.66;53.74;99529.75;5109292;28;20508;-37
2022/09/26 04:14:18;;;;;;;15.80;6.25;;;;;;;14.68;54.19;99536.72;5110791;28;20139;-36
2022/09/26 04:16:45;;;;;;;14.02;5.85;;;;;;;14.27;54.41;99520.56;5111097;28;20020;-36
2022/09/26 04:19:14;;;;;;;13.05;5.47;;;;;;;14.56;53.69;99539.41;5110732;28;20045;-36
2022/09/26 04:21:40;;;;;;;12.98;8.95;;;;;;;14.38;54.25;99532.31;5110958;28;20403;-36
2022/09/26 04:24:13;;;;;;;11.88;7.22;;;;;;;14.39;55.04;99533.94;5110931;28;20023;-36
2022/09/26 04:26:40;;;;;;;10.57;6.80;;;;;;;14.60;54.25;99527.19;5110014;28;20383;-35
2022/09/26 04:29:06;;;;;;;13.43;7.20;;;;;;;14.65;53.82;99533.47;5095773;27;20101;-37
2022/09/26 04:31:34;;;;;;;10.68;6.80;;;;;;;14.47;54.00;99529.06;5103254;27;20019;-37
2022/09/26 04:34:00;;;;;;;15.50;7.18;;;;;;;14.72;53.45;99532.56;5110252;28;20062;-37
2022/09/26 04:36:25;;;;;;;16.48;7.30;;;;;;;14.43;54.67;99540.44;5111086;28;20099;-37
2022/09/26 04:38:50;;;;;;;12.98;7.30;;;;;;;14.59;54.30;99549.69;5110777;28;20030;-37
2022/09/26 04:41:20;;;;;;;17.50;7.25;;;;;;;14.52;54.82;99540.91;5110777;28;20431;-36
2022/09/26 04:43:46;;;;;;;12.38;7.20;;;;;;;14.68;54.60;99537.56;5110544;28;20055;-36
2022/09/26 04:46:23;;;;;;;16.20;7.55;;;;;;;14.67;54.63;99530.56;5109704;28;20438;-36
2022/09/26 04:48:50;;;;;;;13.77;7.53;;;;;;;14.68;54.20;99542.94;5109558;28;20051;-38
2022/09/26 04:51:17;;;;;;;17.25;8.52;;;;;;;14.72;54.31;99545.94;5108889;28;20031;-36
2022/09/26 04:53:42;;;;;;;21.08;8.85;;;;;;;14.83;54.55;99547.75;5109571;28;20146;-36
2022/09/26 04:56:10;;;;;;;19.35;8.25;;;;;;;15.03;54.16;99537.47;5110043;28;20204;-37
2022/09/26 04:58:36;;;;;;;17.63;8.35;;;;;;;15.37;53.54;99547.50;5110172;28;20019;-37
2022/09/26 05:01:04;;;;;;;15.25;7.85;;;;;;;15.81;52.82;99545.09;5110548;28;20080;-37
2022/09/26 05:03:30;;;;;;;19.55;7.88;;;;;;;16.09;52.45;99541.53;5110240;28;20098;-36
2022/09/26 05:05:55;;;;;;;14.77;8.02;;;;;;;15.84;52.80;99536.56;5110404;28;20459;-36
2022/09/26 05:08:22;;;;;;;19.77;7.95;;;;;;;16.13;53.00;99552.59;5111184;28;20034;-37
2022/09/26 05:10:55;;;;;;;18.58;7.90;;;;;;;16.75;52.62;99549.75;5110776;28;20456;-36
2022/09/26 05:13:22;;;;;;;14.63;7.75;;;;;;;17.54;49.85;99551.19;5110961;28;20167;-37
2022/09/26 05:15:53;;;;;;;18.92;8.13;;;;;;;18.07;48.03;99556.00;5110840;28;20095;-36
2022/09/26 05:18:20;;;;;;;16.70;7.22;;;;;;;18.52;47.15;99571.69;5110486;28;20056;-37
2022/09/26 05:20:48;;;;;;;12.30;5.97;;;;;;;19.07;44.78;99566.06;5110763;28;20488;-36
2022/09/26 05:26:21;;;;;;;8.35;5.20;;;;;;;19.87;41.72;99571.13;5078788;28;20126;-36
2022/09/26 05:28:55;;;;;;;9.65;5.15;;;;;;;20.03;41.79;99566.53;5110297;28;20102;-36
2022/09/26 05:31:24;;;;;;;8.10;5.15;;;;;;;20.16;40.74;99557.88;5110472;28;20454;-36
2022/09/26 05:33:50;;;;;;;11.50;5.63;;;;;;;20.35;40.61;99555.44;5110222;28;20024;-36
2022/09/26 05:36:17;;;;;;;9.02;5.20;;;;;;;20.73;39.79;99558.63;5110462;28;20035;-35
2022/09/26 05:38:43;;;;;;;11.48;5.03;;;;;;;21.09;38.84;99556.63;5108634;28;20027;-35
2022/09/26 05:41:08;;;;;;;9.05;4.88;;;;;;;21.56;38.71;99553.69;5110068;28;20372;-37
2022/09/26 05:43:34;;;;;;;12.27;5.25;;;;;;;21.88;37.28;99553.19;5110090;28;20030;-36
2022/09/26 05:46:02;;;;;;;10.25;4.55;;;;;;;22.17;36.69;99547.78;5109540;28;20494;-37
2022/09/26 05:48:29;;;;;;;7.47;4.20;;;;;;;22.56;36.15;99548.78;5109965;28;20552;-37
2022/09/26 05:50:55;;;;;;;7.45;4.50;;;;;;;23.05;35.37;99544.19;5109960;28;20036;-36
2022/09/26 05:53:21;;;;;;;6.53;4.13;;;;;;;23.10;35.55;99550.34;5110019;28;20155;-36
2022/09/26 05:55:50;;;;;;;6.55;5.05;;;;;;;23.29;34.73;99555.00;5109996;28;20019;-36
2022/09/26 05:58:17;;;;;;;10.90;5.07;;;;;;;22.89;34.88;99538.13;5109917;28;20016;-36
2022/09/26 06:00:46;;;;;;;9.90;4.63;;;;;;;23.27;34.70;99536.28;5109735;28;20378;-36
2022/09/26 06:03:13;;;;;;;9.55;4.53;;;;;;;23.63;34.12;99527.63;5112349;28;20172;-37
2022/09/26 06:05:38;;;;;;;8.43;4.50;;;;;;;23.87;33.52;99532.16;5113756;28;20072;-36
2022/09/26 06:08:04;;;;;;;11.50;4.47;;;;;;;24.19;32.92;99532.13;5113847;28;20015;-36
2022/09/26 06:10:29;;;;;;;6.72;4.35;;;;;;;24.54;32.90;99513.59;5113673;28;20376;-36
2022/09/26 06:12:58;;;;;;;11.23;4.72;;;;;;;25.18;31.74;99505.44;5113439;28;20387;-36
2022/09/26 06:15:23;;;;;;;7.82;4.50;;;;;;;25.34;31.14;99499.66;5113510;28;20087;-36
2022/09/26 06:17:57;;;;;;;8.00;4.65;;;;;;;25.44;30.48;99509.53;5113114;28;20114;-37
2022/09/26 06:20:24;;;;;;;11.10;5.18;;;;;;;25.48;30.90;99514.06;5113007;28;20128;-36
2022/09/26 06:22:49;;;;;;;9.70;5.20;;;;;;;25.80;30.39;99514.09;5113481;28;20154;-36
2022/09/26 06:25:14;;;;;;;16.83;8.77;;;;;;;25.94;30.40;99515.69;5113391;28;20149;-36
2022/09/26 06:27:41;;;;;;;14.35;6.93;;;;;;;26.40;29.51;99527.31;5113068;28;20514;-37
2022/09/26 06:30:09;;;;;;;12.65;6.03;;;;;;;26.48;29.39;99529.28;5113267;28;20020;-36
2022/09/26 06:32:35;;;;;;;9.57;5.85;;;;;;;26.82;28.92;99527.00;5113330;28;20024;-37
2022/09/26 06:35:01;;;;;;;9.57;5.50;;;;;;;26.38;29.14;99529.53;5113428;28;20188;-36
2022/09/26 06:37:27;;;;;;;12.15;6.32;;;;;;;25.31;30.76;99527.53;5112935;28;20031;-36
2022/09/26 06:39:52;;;;;;;8.98;5.60;;;;;;;25.50;30.88;99536.34;5113342;28;20019;-36
2022/09/26 06:42:18;;;;;;;10.80;5.70;;;;;;;26.15;30.10;99547.88;5113478;28;20398;-37
2022/09/26 06:44:43;;;;;;;9.52;5.20;;;;;;;26.74;29.27;99555.09;5112750;28;20023;-36
2022/09/26 06:47:09;;;;;;;12.02;5.97;;;;;;;26.08;30.13;99553.78;5112757;28;20030;-37
2022/09/26 06:49:35;;;;;;;12.10;6.20;;;;;;;26.52;29.58;99557.53;5112631;28;20102;-36
2022/09/26 06:52:01;;;;;;;14.65;6.80;;;;;;;26.25;29.58;99557.72;5112413;28;20173;-37
2022/09/26 06:54:27;;;;;;;9.65;6.13;;;;;;;26.64;29.35;99567.88;5112697;28;20153;-37
2022/09/26 06:56:52;;;;;;;8.55;5.50;;;;;;;27.36;28.62;99573.22;5112538;28;20015;-37
2022/09/26 06:59:17;;;;;;;12.07;5.90;;;;;;;27.62;28.23;99563.13;5112557;28;20544;-37
2022/09/26 07:01:44;;;;;;;7.60;5.40;;;;;;;27.28;28.55;99558.44;5112761;28;20015;-36
2022/09/26 07:04:12;;;;;;;10.82;5.82;;;;;;;27.59;27.79;99554.78;5112440;28;20035;-38
2022/09/26 07:06:37;;;;;;;8.82;5.95;;;;;;;28.02;27.64;99571.16;5112562;28;20039;-36
2022/09/26 07:09:03;;;;;;;8.43;5.88;;;;;;;28.63;27.13;99559.25;5111200;28;20020;-37
2022/09/26 07:11:29;;;;;;;10.95;4.82;;;;;;;28.96;26.79;99564.06;5112414;28;20115;-36
2022/09/26 07:13:54;;;;;;;9.45;5.72;;;;;;;28.59;26.96;99547.38;5111393;28;20407;-37
2022/09/26 07:16:20;;;;;;;8.32;5.25;;;;;;;28.79;26.89;99546.63;5112194;28;20023;-37
2022/09/26 07:18:45;;;;;;;6.53;4.28;;;;;;;29.17;26.65;99537.56;5112083;28;20024;-35
2022/09/26 07:21:11;;;;;;;5.90;3.88;;;;;;;29.71;25.53;99538.75;5111980;28;20122;-36
2022/09/26 07:23:36;;;;;;;8.30;4.10;;;;;;;29.98;25.14;99531.91;5112219;28;20096;-37
2022/09/26 07:26:02;;;;;;;6.47;3.88;;;;;;;30.35;24.82;99529.28;5111539;28;20467;-37
2022/09/26 07:28:30;;;;;;;7.10;3.50;;;;;;;30.07;24.69;99542.78;5111855;28;20055;-36
2022/09/26 07:30:56;;;;;;;4.65;3.40;;;;;;;30.56;23.86;99534.66;5111830;28;20031;-36
2022/09/26 07:33:22;;;;;;;7.72;3.45;;;;;;;30.54;24.10;99536.91;5111756;28;20037;-38
2022/09/26 07:35:48;;;;;;;4.60;3.60;;;;;;;30.80;23.46;99537.38;5111526;28;20083;-38
2022/09/26 07:38:14;;;;;;;4.55;3.33;;;;;;;30.57;23.96;99533.50;5111756;28;20034;-39
2022/09/26 07:40:40;;;;;;;5.25;3.38;;;;;;;30.72;23.87;99532.81;5111229;28;20031;-37
2022/09/26 07:43:06;;;;;;;5.00;3.30;;;;;;;31.11;23.30;99525.03;5111563;28;20456;-38
2022/09/26 07:51:10;;;;;;;20.65;6.13;;;;;;;29.24;25.45;99515.09;5111658;28;20046;-37
2022/09/26 07:53:37;;;;;;;12.45;4.13;;;;;;;29.88;24.63;99510.41;5111730;28;20042;-37
2022/09/26 07:56:06;;;;;;;8.10;3.55;;;;;;;30.55;24.07;99516.56;5111009;28;20088;-37
2022/09/26 07:58:32;;;;;;;8.88;3.65;;;;;;;30.76;23.84;99516.44;5111215;28;20107;-36
2022/09/26 08:00:57;;;;;;;8.77;3.53;;;;;;;30.76;23.31;99527.44;5111472;28;20031;-36
2022/09/26 08:03:26;;;;;;;9.23;3.80;;;;;;;29.82;24.63;99521.56;5111137;28;20080;-36
2022/09/26 08:05:57;;;;;;;8.32;3.80;;;;;;;30.08;24.37;99519.69;5111022;28;20038;-37
2022/09/26 08:08:23;;;;;;;6.68;3.50;;;;;;;30.51;24.10;99513.72;5109764;28;20031;-36
2022/09/26 08:10:48;;;;;;;9.18;3.50;;;;;;;31.03;23.35;99505.91;5110992;28;20046;-36
2022/09/26 08:13:14;;;;;;;6.55;3.55;;;;;;;30.71;23.47;99501.03;5110901;28;20464;-37
2022/09/26 08:15:39;;;;;;;7.80;3.70;;;;;;;30.47;23.30;99501.81;5110666;28;20480;-37
2022/09/26 08:18:05;;;;;;;7.25;4.90;;;;;;;29.68;24.09;99490.06;5110808;28;20508;-36
2022/09/26 08:20:30;;;;;;;11.48;4.28;;;;;;;29.32;24.87;99480.56;5110680;28;20117;-36
2022/09/26 08:22:56;;;;;;;8.25;3.70;;;;;;;29.53;24.26;99480.53;5111172;28;20036;-37
2022/09/26 08:25:21;;;;;;;7.05;3.88;;;;;;;30.12;23.78;99463.00;5109650;28;20030;-37
2022/09/26 08:27:47;;;;;;;6.30;3.63;;;;;;;30.57;23.55;99448.41;5110708;28;20030;-37
2022/09/26 08:30:14;;;;;;;9.60;3.72;;;;;;;30.54;23.47;99438.09;5110447;28;20161;-37
2022/09/26 08:32:39;;;;;;;6.60;3.63;;;;;;;29.79;24.12;99452.88;5110765;28;20035;-36
2022/09/26 08:35:06;;;;;;;9.18;3.53;;;;;;;30.21;23.77;99439.00;5110429;28;20485;-37
2022/09/26 08:37:32;;;;;;;7.78;3.88;;;;;;;30.05;23.54;99440.84;5110552;28;20485;-36
2022/09/26 08:39:59;;;;;;;6.78;3.30;;;;;;;29.31;24.54;99449.63;5110124;28;20027;-36
2022/09/26 08:42:35;;;;;;;6.05;3.30;;;;;;;29.44;24.46;99445.78;5110827;28;20023;-35
2022/09/26 08:48:50;;;;;;;4.60;3.80;;;;;;;28.85;25.61;99443.19;5110709;28;20047;-35
2022/09/26 08:51:22;;;;;;;5.25;3.53;;;;;;;29.41;25.57;99445.66;5027990;28;20033;-37
2022/09/26 08:53:54;;;;;;;4.90;3.47;;;;;;;29.70;24.11;99438.44;5105074;28;20466;-37
2022/09/26 08:56:30;;;;;;;4.70;3.50;;;;;;;29.87;24.60;99424.56;5110281;28;20030;-37
2022/09/26 08:58:58;;;;;;;7.78;3.50;;;;;;;29.72;24.34;99439.72;5110410;28;20028;-37
2022/09/26 09:01:27;;;;;;;4.00;3.33;;;;;;;29.12;25.15;99433.63;5110506;28;20031;-37
2022/09/26 09:04:11;;;;;;;4.05;3.15;;;;;;;29.32;24.95;99440.28;5110188;28;20354;-37
2022/09/26 09:06:37;;;;;;;4.82;3.33;;;;;;;29.66;24.74;99432.03;5110214;28;20100;-37
2022/09/26 09:09:02;;;;;;;8.40;3.30;;;;;;;29.68;24.81;99433.28;5110287;28;20399;-37
2022/09/26 09:11:49;;;;;;;4.47;3.05;;;;;;;30.25;24.33;99428.94;5110351;28;20449;-38
2022/09/26 09:14:37;;;;;;;3.90;3.40;;;;;;;30.55;24.12;99417.75;5110041;28;20399;-36
2022/09/26 09:17:21;;;;;;;4.55;3.40;;;;;;;30.54;23.40;99424.38;5109988;28;20084;-37
2022/09/26 09:20:06;;;;;;;5.50;3.35;;;;;;;30.42;24.16;99413.41;5109796;28;20048;-36
2022/09/26 09:22:54;;;;;;;8.13;3.85;;;;;;;30.27;24.47;99403.91;5109742;28;20099;-37
2022/09/26 09:25:31;;;;;;;8.10;3.20;;;;;;;30.44;23.43;99411.13;5109757;28;20126;-35
2022/09/26 09:28:15;;;;;;;8.82;3.42;;;;;;;30.05;24.59;99388.72;5109745;28;20035;-37
2022/09/26 09:30:56;;;;;;;5.38;3.50;;;;;;;29.85;24.77;99393.94;5109598;28;20502;-37
2022/09/26 09:33:43;;;;;;;5.32;3.30;;;;;;;29.88;24.43;99387.78;5110206;28;20132;-37
2022/09/26 09:36:42;;;;;;;5.95;3.33;;;;;;;29.79;24.49;99389.81;5109427;28;20077;-37
2022/09/26 09:39:12;;;;;;;9.48;3.15;;;;;;;29.38;24.42;99402.50;5113837;28;20019;-37
2022/09/26 09:41:51;;;;;;;4.63;3.20;;;;;;;29.51;25.12;99406.06;5113911;28;20031;-37
2022/09/26 09:44:52;;;;;;;5.40;3.28;;;;;;;28.72;26.07;99375.81;5113473;28;20506;-37
2022/09/26 09:47:18;;;;;;;5.85;3.30;;;;;;;28.68;25.68;99374.88;5113399;27;20043;-37
2022/09/26 09:49:47;;;;;;;6.88;3.20;;;;;;;27.73;26.79;99374.22;5113757;28;20084;-37
2022/09/26 09:52:40;;;;;;;6.17;3.20;;;;;;;28.11;26.81;99363.28;5113660;28;20042;-37
2022/09/26 09:55:34;;;;;;;3.90;2.90;;;;;;;28.69;25.61;99357.31;5113948;28;20645;-37
2022/09/26 09:58:32;;;;;;;3.67;2.83;;;;;;;28.10;26.10;99349.94;5113547;28;20312;-37
2022/09/26 10:01:11;;;;;;;7.25;3.20;;;;;;;28.08;26.29;99344.81;5113606;28;20110;-37
2022/09/26 10:03:52;;;;;;;5.65;3.20;;;;;;;27.17;26.86;99347.66;5112442;28;20046;-36
2022/09/26 10:06:17;;;;;;;5.30;3.20;;;;;;;27.69;26.58;99339.31;5113321;28;20416;-37
2022/09/26 10:08:42;;;;;;;3.38;2.90;;;;;;;27.10;26.72;99328.22;5112892;28;20027;-37
2022/09/26 10:11:30;;;;;;;4.03;2.78;;;;;;;27.37;26.25;99334.47;5112876;28;20042;-36
2022/09/26 10:14:03;;;;;;;5.13;2.95;;;;;;;27.94;25.79;99331.38;5112715;28;20119;-37
2022/09/26 10:16:30;;;;;;;4.68;2.80;;;;;;;27.93;25.60;99331.69;5113158;28;20025;-37
2022/09/26 10:19:07;;;;;;;3.35;2.92;;;;;;;27.53;26.05;99338.28;5112785;28;20115;-37
2022/09/26 10:21:34;;;;;;;3.80;3.00;;;;;;;27.77;25.68;99331.44;5113224;28;20119;-37
2022/09/26 10:24:02;;;;;;;5.97;3.10;;;;;;;28.76;25.45;99328.28;5112779;28;20032;-37
2022/09/26 10:26:33;;;;;;;5.20;3.60;;;;;;;29.44;24.43;99317.00;5112989;28;20020;-37
2022/09/26 10:29:18;;;;;;;3.92;2.95;;;;;;;28.89;25.27;99320.13;5112759;28;20039;-37
2022/09/26 10:31:44;;;;;;;7.13;3.28;;;;;;;28.54;25.70;99303.97;5112816;28;20054;-37
2022/09/26 10:34:39;;;;;;;6.93;3.40;;;;;;;28.26;25.72;99299.81;5113044;28;20027;-37
2022/09/26 10:37:24;;;;;;;4.00;2.90;;;;;;;27.30;27.84;99294.78;5094911;28;20190;-36
2022/09/26 10:42:38;;;;;;;4.65;3.05;;;;;;;27.36;27.75;99281.75;5113202;28;20034;-37
2022/09/26 10:45:28;;;;;;;4.13;3.00;;;;;;;28.08;26.90;99273.69;5113059;28;20347;-37
2022/09/26 10:47:55;;;;;;;5.75;3.00;;;;;;;27.34;27.34;99294.13;5112539;28;20055;-37
2022/09/26 10:50:26;;;;;;;5.80;3.40;;;;;;;27.69;26.82;99286.59;5111900;28;20031;-37
2022/09/26 10:53:07;;;;;;;3.80;2.90;;;;;;;27.82;26.59;99290.25;5112898;28;20106;-37
2022/09/26 10:55:48;;;;;;;4.57;2.78;;;;;;;27.88;26.82;99295.22;5112876;28;20027;-37
2022/09/26 10:58:23;;;;;;;5.10;3.13;;;;;;;28.27;26.23;99287.75;5112850;28;20069;-37
2022/09/26 11:00:51;;;;;;;3.00;2.70;;;;;;;29.14;25.12;99267.03;5112511;28;20435;-36
2022/09/26 11:03:20;;;;;;;3.17;2.88;;;;;;;28.90;24.65;99267.78;5112703;27;20019;-35
2022/09/26 11:05:56;;;;;;;3.42;3.05;;;;;;;29.10;24.85;99274.31;5112662;28;20337;-36
2022/09/26 11:08:25;;;;;;;2.92;2.63;;;;;;;29.37;24.60;99272.91;5112603;28;20144;-36
2022/09/26 11:10:51;;;;;;;3.10;2.80;;;;;;;29.02;25.44;99256.84;5112459;28;20471;-37
2022/09/26 11:13:25;;;;;;;3.95;2.92;;;;;;;29.14;24.98;99253.34;5112235;28;20023;-37
2022/09/26 11:16:01;;;;;;;3.22;2.90;;;;;;;29.45;25.33;99254.75;5112406;28;20050;-37
2022/09/26 11:18:44;;;;;;;3.45;2.85;;;;;;;29.39;24.84;99239.69;5112416;28;20030;-37
2022/09/26 11:21:44;;;;;;;4.47;3.08;;;;;;;29.82;24.71;99228.16;5112115;28;20059;-37
2022/09/26 11:24:24;;;;;;;3.17;2.80;;;;;;;29.49;24.32;99231.00;5112065;28;20529;-37
2022/09/26 11:27:18;;;;;;;4.28;3.10;;;;;;;29.56;24.62;99231.22;5111705;28;20027;-37
2022/09/26 11:29:46;;;;;;;3.65;2.92;;;;;;;29.52;24.70;99232.28;5111794;28;20515;-37
2022/09/26 11:32:17;;;;;;;4.05;3.20;;;;;;;28.84;25.48;99230.75;5111585;28;20023;-37
2022/09/26 11:34:44;;;;;;;4.45;2.95;;;;;;;28.43;25.94;99230.47;5111944;28;20035;-38
2022/09/26 11:37:49;;;;;;;5.50;3.22;;;;;;;28.23;26.79;99234.81;5112006;28;20024;-37
2022/09/26 11:40:33;;;;;;;4.63;3.10;;;;;;;29.41;25.28;99248.34;5111576;28;20034;-37
2022/09/26 11:43:23;;;;;;;6.70;3.20;;;;;;;29.47;25.17;99246.97;5111621;28;20033;-37
2022/09/26 11:46:03;;;;;;;4.18;3.20;;;;;;;30.19;24.64;99235.53;5111608;28;20360;-37
2022/09/26 11:49:02;;;;;;;5.53;3.58;;;;;;;29.51;25.18;99223.25;5111848;28;20035;-37
2022/09/26 11:51:54;;;;;;;7.57;3.17;;;;;;;29.34;25.55;99207.03;5111972;28;20085;-36
2022/09/26 11:54:26;;;;;;;5.13;3.22;;;;;;;29.75;25.20;99206.00;5111979;28;20170;-36
2022/09/26 11:57:32;;;;;;;5.05;3.00;;;;;;;29.89;24.88;99200.19;5111917;28;20384;-36
2022/09/26 12:00:14;;;;;;;3.30;3.00;;;;;;;29.79;24.84;99208.84;5111253;28;20031;-37
2022/09/26 12:03:15;;;;;;;4.60;3.30;;;;;;;30.19;24.33;99199.84;5111572;28;20111;-37
2022/09/26 12:05:53;;;;;;;4.78;3.60;;;;;;;30.43;23.96;99189.97;5110466;28;20084;-37
2022/09/26 12:08:29;;;;;;;5.82;3.15;;;;;;;30.66;23.88;99191.00;5111105;28;20023;-37